Portada
METAR-TAF:

METAR-TAF

Aeropuertos :

Aeródromo de Zeltweg

Zeltweg, Austria

latitud: 47-12N, longitud: 014-45E, altitud: 677 m

Observación

El informe se hizo hace 26 minutos, a las 06:50 UTC
Viento 3 kt con dirección variable
Temperatura 17°C
Humedad 77%
Presión 1007 hPa

METAR: LOXZ 070650Z VRB03KT 30KM FEW045SC SCT330CI 17/13 Q1007 NOSIG

Hora: 09:16 (07:16 UTC)

Pronóstico

El informe se hizo hace 2 horas y 1 minutos, a las 05:15 UTC
Pronóstico válido del 07 a las 06 UTC al 07 a las 15 UTC
Viento 6 kt con dirección variable
Visibilidad 10 km o más
Escasas nubes a una altura de 4500 ft
Nubes dispersas a una altura de 5000 ft
Temporalmente
del 07 a las 09 UTC al 07 a las 15 UTC
Viento 12 kt del suroeste con ráfagas de 25 kt
Nubes dispersas a una altura de 4500 ft
Nubes dispersas a una altura de 10000 ft

TAF: LOXZ 070515Z 0706/0715 VRB06KT 9999 FEW045 SCT050 TEMPO 0709/0715 22012G25KT SCT045 SCT100

Observaciones y pronósticos meteorológicos de más de 4000 aeropuertos (mensajes METAR y TAF).

Los puntos amarillos y rojos representan las estaciones disponibles.

Ponga el ratón en el punto deseado para ver el nombre de la estación.

Haga clic para ver las observaciones y los pronósticos meteorológicos.

Para cambiar el mapa : haga clic en los botones verdes con una cruz de color negro para hacer un zoom, en el botón verde con un guión para alejar o en las flechas verdes para mapas adyacentes.


METAR-TAF: